sensor_id;sensor_type;location;lat;lon;timestamp;pressure;altitude;pressure_sealevel;temperature;humidity
67840;BME280;54636;51.684;5.142;2023-01-25T00:01:20;103833.06;;;0.14;100.00
67840;BME280;54636;51.684;5.142;2023-01-25T00:03:45;103826.81;;;0.10;100.00
67840;BME280;54636;51.684;5.142;2023-01-25T00:06:10;103832.97;;;0.11;100.00
67840;BME280;54636;51.684;5.142;2023-01-25T00:08:36;103828.28;;;0.08;100.00
67840;BME280;54636;51.684;5.142;2023-01-25T00:11:02;103825.81;;;0.03;100.00
67840;BME280;54636;51.684;5.142;2023-01-25T00:13:28;103817.34;;;0.00;100.00
67840;BME280;54636;51.684;5.142;2023-01-25T00:16:02;103818.59;;;0.03;100.00
67840;BME280;54636;51.684;5.142;2023-01-25T00:18:28;103821.06;;;-0.04;100.00
67840;BME280;54636;51.684;5.142;2023-01-25T00:20:54;103815.72;;;-0.04;100.00
67840;BME280;54636;51.684;5.142;2023-01-25T00:23:19;103810.25;;;-0.08;100.00
67840;BME280;54636;51.684;5.142;2023-01-25T00:25:45;103817.16;;;-0.07;100.00
67840;BME280;54636;51.684;5.142;2023-01-25T00:28:10;103823.94;;;-0.09;100.00
67840;BME280;54636;51.684;5.142;2023-01-25T00:30:36;103797.56;;;-0.23;100.00
67840;BME280;54636;51.684;5.142;2023-01-25T00:33:31;103806.91;;;-0.17;100.00
67840;BME280;54636;51.684;5.142;2023-01-25T00:35:59;103818.03;;;-0.15;100.00
67840;BME280;54636;51.684;5.142;2023-01-25T00:38:33;103809.78;;;-0.22;100.00
67840;BME280;54636;51.684;5.142;2023-01-25T00:40:59;103814.25;;;-0.14;100.00
67840;BME280;54636;51.684;5.142;2023-01-25T00:43:28;103819.28;;;-0.12;100.00
67840;BME280;54636;51.684;5.142;2023-01-25T00:45:59;103812.81;;;-0.11;100.00
67840;BME280;54636;51.684;5.142;2023-01-25T00:48:25;103805.56;;;-0.11;100.00
67840;BME280;54636;51.684;5.142;2023-01-25T00:50:50;103785.19;;;-0.15;100.00
67840;BME280;54636;51.684;5.142;2023-01-25T00:53:15;103803.25;;;0.00;100.00
67840;BME280;54636;51.684;5.142;2023-01-25T00:55:41;103808.94;;;-0.02;100.00
67840;BME280;54636;51.684;5.142;2023-01-25T00:58:15;103791.09;;;-0.10;100.00
67840;BME280;54636;51.684;5.142;2023-01-25T01:00:40;103803.13;;;-0.04;100.00
67840;BME280;54636;51.684;5.142;2023-01-25T01:03:05;103791.78;;;-0.01;100.00
67840;BME280;54636;51.684;5.142;2023-01-25T01:05:31;103789.97;;;0.04;100.00
67840;BME280;54636;51.684;5.142;2023-01-25T01:07:56;103786.78;;;-0.02;100.00
67840;BME280;54636;51.684;5.142;2023-01-25T01:10:21;103793.13;;;-0.07;100.00
67840;BME280;54636;51.684;5.142;2023-01-25T01:12:47;103791.00;;;-0.01;100.00
67840;BME280;54636;51.684;5.142;2023-01-25T01:15:12;103795.34;;;-0.09;100.00
67840;BME280;54636;51.684;5.142;2023-01-25T01:17:37;103791.78;;;-0.01;100.00
67840;BME280;54636;51.684;5.142;2023-01-25T01:20:03;103797.91;;;-0.12;100.00
67840;BME280;54636;51.684;5.142;2023-01-25T01:22:29;103799.13;;;-0.10;100.00
67840;BME280;54636;51.684;5.142;2023-01-25T01:24:54;103797.44;;;-0.14;100.00
67840;BME280;54636;51.684;5.142;2023-01-25T01:27:20;103802.13;;;-0.11;100.00
67840;BME280;54636;51.684;5.142;2023-01-25T01:29:45;103795.00;;;-0.19;100.00
67840;BME280;54636;51.684;5.142;2023-01-25T01:32:10;103808.03;;;-0.18;100.00
67840;BME280;54636;51.684;5.142;2023-01-25T01:34:36;103804.00;;;-0.24;100.00
67840;BME280;54636;51.684;5.142;2023-01-25T01:37:02;103808.78;;;-0.29;100.00
67840;BME280;54636;51.684;5.142;2023-01-25T01:39:27;103793.41;;;-0.32;100.00
67840;BME280;54636;51.684;5.142;2023-01-25T01:41:53;103803.00;;;-0.31;100.00
67840;BME280;54636;51.684;5.142;2023-01-25T01:44:20;103786.41;;;-0.37;100.00
67840;BME280;54636;51.684;5.142;2023-01-25T01:47:12;103787.88;;;-0.15;100.00
67840;BME280;54636;51.684;5.142;2023-01-25T01:49:39;103790.44;;;-0.19;100.00
67840;BME280;54636;51.684;5.142;2023-01-25T01:52:09;103794.31;;;-0.28;100.00
67840;BME280;54636;51.684;5.142;2023-01-25T01:54:42;103795.66;;;-0.22;100.00
67840;BME280;54636;51.684;5.142;2023-01-25T01:57:17;103785.88;;;-0.18;100.00
67840;BME280;54636;51.684;5.142;2023-01-25T01:59:51;103776.97;;;-0.22;100.00
67840;BME280;54636;51.684;5.142;2023-01-25T02:02:17;103787.22;;;0.00;100.00
67840;BME280;54636;51.684;5.142;2023-01-25T02:04:46;103792.56;;;-0.12;100.00
67840;BME280;54636;51.684;5.142;2023-01-25T02:07:20;103774.28;;;-0.22;100.00
67840;BME280;54636;51.684;5.142;2023-01-25T02:09:49;103778.19;;;-0.20;100.00
67840;BME280;54636;51.684;5.142;2023-01-25T02:12:16;103775.97;;;-0.18;100.00
67840;BME280;54636;51.684;5.142;2023-01-25T02:14:47;103772.63;;;-0.15;100.00
67840;BME280;54636;51.684;5.142;2023-01-25T02:17:13;103766.16;;;-0.14;100.00
67840;BME280;54636;51.684;5.142;2023-01-25T02:22:35;103776.28;;;-0.19;100.00
67840;BME280;54636;51.684;5.142;2023-01-25T02:25:06;103779.75;;;-0.19;100.00
67840;BME280;54636;51.684;5.142;2023-01-25T02:27:37;103775.19;;;-0.18;100.00
67840;BME280;54636;51.684;5.142;2023-01-25T02:30:04;103770.84;;;-0.23;100.00
67840;BME280;54636;51.684;5.142;2023-01-25T02:32:31;103776.84;;;-0.14;100.00
67840;BME280;54636;51.684;5.142;2023-01-25T02:34:57;103770.06;;;-0.23;100.00
67840;BME280;54636;51.684;5.142;2023-01-25T02:37:22;103764.16;;;-0.29;100.00
67840;BME280;54636;51.684;5.142;2023-01-25T02:39:48;103771.84;;;-0.27;100.00
67840;BME280;54636;51.684;5.142;2023-01-25T02:42:13;103761.81;;;-0.30;100.00
67840;BME280;54636;51.684;5.142;2023-01-25T02:44:40;103769.06;;;-0.31;100.00
67840;BME280;54636;51.684;5.142;2023-01-25T02:47:06;103767.94;;;-0.30;100.00
67840;BME280;54636;51.684;5.142;2023-01-25T02:49:34;103758.69;;;-0.32;100.00
67840;BME280;54636;51.684;5.142;2023-01-25T02:52:01;103761.03;;;-0.31;100.00
67840;BME280;54636;51.684;5.142;2023-01-25T02:54:27;103756.38;;;-0.34;100.00
67840;BME280;54636;51.684;5.142;2023-01-25T02:56:52;103766.50;;;-0.27;100.00
67840;BME280;54636;51.684;5.142;2023-01-25T02:59:18;103765.06;;;-0.25;100.00
67840;BME280;54636;51.684;5.142;2023-01-25T03:01:43;103754.69;;;-0.26;100.00
67840;BME280;54636;51.684;5.142;2023-01-25T03:04:09;103756.38;;;-0.22;100.00
67840;BME280;54636;51.684;5.142;2023-01-25T03:06:35;103751.91;;;-0.30;100.00
67840;BME280;54636;51.684;5.142;2023-01-25T03:09:03;103746.91;;;-0.31;100.00
67840;BME280;54636;51.684;5.142;2023-01-25T03:11:32;103749.25;;;-0.30;100.00
67840;BME280;54636;51.684;5.142;2023-01-25T03:13:58;103744.56;;;-0.33;100.00
67840;BME280;54636;51.684;5.142;2023-01-25T03:16:23;103746.91;;;-0.31;100.00
67840;BME280;54636;51.684;5.142;2023-01-25T03:18:51;103730.00;;;-0.36;100.00
67840;BME280;54636;51.684;5.142;2023-01-25T03:21:18;103732.31;;;-0.34;100.00
67840;BME280;54636;51.684;5.142;2023-01-25T03:23:44;103721.97;;;-0.36;100.00
67840;BME280;54636;51.684;5.142;2023-01-25T03:26:19;103727.09;;;-0.30;100.00
67840;BME280;54636;51.684;5.142;2023-01-25T03:28:45;103723.44;;;-0.26;100.00
67840;BME280;54636;51.684;5.142;2023-01-25T03:31:12;103721.53;;;-0.25;100.00
67840;BME280;54636;51.684;5.142;2023-01-25T03:33:38;103713.84;;;-0.27;100.00
67840;BME280;54636;51.684;5.142;2023-01-25T03:36:05;103705.94;;;-0.23;100.00
67840;BME280;54636;51.684;5.142;2023-01-25T03:38:31;103710.63;;;-0.32;100.00
67840;BME280;54636;51.684;5.142;2023-01-25T03:40:56;103712.69;;;0.11;100.00
67840;BME280;54636;51.684;5.142;2023-01-25T03:43:22;103709.75;;;-0.24;100.00
67840;BME280;54636;51.684;5.142;2023-01-25T03:45:52;103715.19;;;-0.33;100.00
67840;BME280;54636;51.684;5.142;2023-01-25T03:48:18;103717.09;;;-0.34;100.00
67840;BME280;54636;51.684;5.142;2023-01-25T03:50:50;103710.28;;;-0.43;100.00
67840;BME280;54636;51.684;5.142;2023-01-25T03:53:17;103710.28;;;-0.43;100.00
67840;BME280;54636;51.684;5.142;2023-01-25T03:56:01;103711.84;;;-0.42;100.00
67840;BME280;54636;51.684;5.142;2023-01-25T03:58:27;103707.28;;;-0.42;100.00
67840;BME280;54636;51.684;5.142;2023-01-25T04:00:55;103694.81;;;-0.50;100.00
67840;BME280;54636;51.684;5.142;2023-01-25T04:03:21;103697.38;;;-0.53;100.00
67840;BME280;54636;51.684;5.142;2023-01-25T04:05:46;103701.81;;;-0.57;100.00
67840;BME280;54636;51.684;5.142;2023-01-25T04:08:12;103703.59;;;-0.61;100.00
67840;BME280;54636;51.684;5.142;2023-01-25T04:10:38;103701.94;;;-0.54;100.00
67840;BME280;54636;51.684;5.142;2023-01-25T04:13:03;103703.28;;;-0.48;100.00
67840;BME280;54636;51.684;5.142;2023-01-25T04:15:29;103698.25;;;-0.49;100.00
67840;BME280;54636;51.684;5.142;2023-01-25T04:17:54;103697.50;;;-0.50;100.00
67840;BME280;54636;51.684;5.142;2023-01-25T04:20:20;103696.25;;;-0.52;100.00
67840;BME280;54636;51.684;5.142;2023-01-25T04:22:46;103701.84;;;-0.45;100.00
67840;BME280;54636;51.684;5.142;2023-01-25T04:25:11;103696.03;;;-0.47;100.00
67840;BME280;54636;51.684;5.142;2023-01-25T04:27:36;103704.41;;;-0.37;100.00
67840;BME280;54636;51.684;5.142;2023-01-25T04:30:02;103694.72;;;-0.41;100.00
67840;BME280;54636;51.684;5.142;2023-01-25T04:32:28;103699.16;;;-0.45;100.00
67840;BME280;54636;51.684;5.142;2023-01-25T04:34:55;103689.47;;;-0.50;100.00
67840;BME280;54636;51.684;5.142;2023-01-25T04:37:20;103689.47;;;-0.50;100.00
67840;BME280;54636;51.684;5.142;2023-01-25T04:39:46;103675.56;;;-0.55;100.00
67840;BME280;54636;51.684;5.142;2023-01-25T04:42:11;103681.81;;;-0.51;100.00
67840;BME280;54636;51.684;5.142;2023-01-25T04:44:36;103684.47;;;-0.51;100.00
67840;BME280;54636;51.684;5.142;2023-01-25T04:47:02;103689.81;;;-0.51;100.00
67840;BME280;54636;51.684;5.142;2023-01-25T04:49:27;103684.34;;;-0.55;100.00
67840;BME280;54636;51.684;5.142;2023-01-25T04:51:53;103685.25;;;-0.51;100.00
67840;BME280;54636;51.684;5.142;2023-01-25T04:54:18;103690.69;;;-0.47;100.00
67840;BME280;54636;51.684;5.142;2023-01-25T04:56:44;103686.81;;;-0.50;100.00
67840;BME280;54636;51.684;5.142;2023-01-25T04:59:09;103689.81;;;-0.51;100.00
67840;BME280;54636;51.684;5.142;2023-01-25T05:01:35;103687.47;;;-0.53;100.00
67840;BME280;54636;51.684;5.142;2023-01-25T05:04:00;103670.22;;;-0.31;100.00
67840;BME280;54636;51.684;5.142;2023-01-25T05:06:26;103670.56;;;-0.45;100.00
67840;BME280;54636;51.684;5.142;2023-01-25T05:08:51;103665.66;;;-0.55;100.00
67840;BME280;54636;51.684;5.142;2023-01-25T05:11:16;103665.91;;;-0.48;100.00
67840;BME280;54636;51.684;5.142;2023-01-25T05:13:42;103667.44;;;-0.35;100.00
67840;BME280;54636;51.684;5.142;2023-01-25T05:16:07;103666.22;;;-0.49;100.00
67840;BME280;54636;51.684;5.142;2023-01-25T05:18:32;103655.78;;;-0.54;100.00
67840;BME280;54636;51.684;5.142;2023-01-25T05:20:58;103654.31;;;-0.52;100.00
67840;BME280;54636;51.684;5.142;2023-01-25T05:23:23;103654.00;;;-0.50;100.00
67840;BME280;54636;51.684;5.142;2023-01-25T05:25:49;103656.22;;;-0.52;100.00
67840;BME280;54636;51.684;5.142;2023-01-25T05:28:37;103651.09;;;-0.57;100.00
67840;BME280;54636;51.684;5.142;2023-01-25T05:31:03;103636.41;;;-0.63;100.00
67840;BME280;54636;51.684;5.142;2023-01-25T05:33:31;103649.97;;;-0.56;100.00
67840;BME280;54636;51.684;5.142;2023-01-25T05:35:57;103652.31;;;-0.43;100.00
67840;BME280;54636;51.684;5.142;2023-01-25T05:38:23;103656.66;;;-0.50;100.00
67840;BME280;54636;51.684;5.142;2023-01-25T05:40:49;103646.31;;;-0.64;100.00
67840;BME280;54636;51.684;5.142;2023-01-25T05:43:14;103653.66;;;-0.61;100.00
67840;BME280;54636;51.684;5.142;2023-01-25T05:45:39;103650.66;;;-0.59;100.00
67840;BME280;54636;51.684;5.142;2023-01-25T05:48:05;103635.63;;;-0.64;100.00
67840;BME280;54636;51.684;5.142;2023-01-25T05:50:30;103635.63;;;-0.64;100.00
67840;BME280;54636;51.684;5.142;2023-01-25T05:52:56;103643.09;;;-0.57;100.00
67840;BME280;54636;51.684;5.142;2023-01-25T05:55:21;103642.31;;;-0.58;100.00
67840;BME280;54636;51.684;5.142;2023-01-25T05:57:47;103643.41;;;-0.59;100.00
67840;BME280;54636;51.684;5.142;2023-01-25T06:00:12;103649.88;;;-0.60;100.00
67840;BME280;54636;51.684;5.142;2023-01-25T06:02:38;103637.31;;;-0.72;100.00
67840;BME280;54636;51.684;5.142;2023-01-25T06:05:04;103648.97;;;-0.64;100.00
67840;BME280;54636;51.684;5.142;2023-01-25T06:07:33;103645.91;;;-0.66;100.00
67840;BME280;54636;51.684;5.142;2023-01-25T06:10:00;103650.00;;;-0.69;100.00
67840;BME280;54636;51.684;5.142;2023-01-25T06:12:26;103632.66;;;-0.75;100.00
67840;BME280;54636;51.684;5.142;2023-01-25T06:14:51;103652.78;;;-0.53;100.00
67840;BME280;54636;51.684;5.142;2023-01-25T06:17:17;103649.69;;;-0.67;100.00
67840;BME280;54636;51.684;5.142;2023-01-25T06:19:43;103651.22;;;-0.66;100.00
67840;BME280;54636;51.684;5.142;2023-01-25T06:22:08;103650.00;;;-0.69;100.00
67840;BME280;54636;51.684;5.142;2023-01-25T06:24:34;103647.22;;;-0.72;100.00
67840;BME280;54636;51.684;5.142;2023-01-25T06:26:59;103651.44;;;-0.71;100.00
67840;BME280;54636;51.684;5.142;2023-01-25T06:29:24;103654.31;;;-0.64;100.00
67840;BME280;54636;51.684;5.142;2023-01-25T06:31:50;103661.47;;;-0.68;100.00
67840;BME280;54636;51.684;5.142;2023-01-25T06:34:15;103656.78;;;-0.71;100.00
67840;BME280;54636;51.684;5.142;2023-01-25T06:36:41;103653.91;;;-0.66;100.00
67840;BME280;54636;51.684;5.142;2023-01-25T06:39:06;103661.47;;;-0.68;100.00
67840;BME280;54636;51.684;5.142;2023-01-25T06:41:32;103656.91;;;-0.68;100.00
67840;BME280;54636;51.684;5.142;2023-01-25T06:43:57;103645.34;;;-0.72;100.00
67840;BME280;54636;51.684;5.142;2023-01-25T06:46:23;103653.78;;;-0.70;100.00
67840;BME280;54636;51.684;5.142;2023-01-25T06:48:48;103653.13;;;-0.67;100.00
67840;BME280;54636;51.684;5.142;2023-01-25T06:51:17;103656.47;;;-0.70;100.00
67840;BME280;54636;51.684;5.142;2023-01-25T06:53:44;103663.34;;;-0.69;100.00
67840;BME280;54636;51.684;5.142;2023-01-25T06:56:11;103653.53;;;-0.64;100.00
67840;BME280;54636;51.684;5.142;2023-01-25T06:58:37;103642.00;;;-0.69;100.00
67840;BME280;54636;51.684;5.142;2023-01-25T07:01:11;103643.00;;;-0.73;100.00
67840;BME280;54636;51.684;5.142;2023-01-25T07:03:37;103651.56;;;-0.68;100.00
67840;BME280;54636;51.684;5.142;2023-01-25T07:06:04;103653.47;;;-0.68;100.00
67840;BME280;54636;51.684;5.142;2023-01-25T07:08:30;103653.91;;;-0.66;100.00
67840;BME280;54636;51.684;5.142;2023-01-25T07:11:01;103650.78;;;-0.68;100.00
67840;BME280;54636;51.684;5.142;2023-01-25T07:13:28;103645.66;;;-0.73;100.00
67840;BME280;54636;51.684;5.142;2023-01-25T07:15:56;103619.75;;;-0.85;100.00
67840;BME280;54636;51.684;5.142;2023-01-25T07:18:22;103641.44;;;-0.74;100.00
67840;BME280;54636;51.684;5.142;2023-01-25T07:20:49;103641.44;;;-0.74;100.00
67840;BME280;54636;51.684;5.142;2023-01-25T07:23:14;103639.88;;;-0.75;100.00
67840;BME280;54636;51.684;5.142;2023-01-25T07:25:47;103639.66;;;-0.70;100.00
67840;BME280;54636;51.684;5.142;2023-01-25T07:28:14;103629.09;;;-0.67;100.00
67840;BME280;54636;51.684;5.142;2023-01-25T07:30:39;103626.53;;;-0.75;100.00
67840;BME280;54636;51.684;5.142;2023-01-25T07:33:06;103626.53;;;-0.75;100.00
67840;BME280;54636;51.684;5.142;2023-01-25T07:35:31;103617.53;;;-0.83;100.00
67840;BME280;54636;51.684;5.142;2023-01-25T07:37:57;103627.41;;;-0.83;100.00
67840;BME280;54636;51.684;5.142;2023-01-25T07:40:22;103625.97;;;-0.81;100.00
67840;BME280;54636;51.684;5.142;2023-01-25T07:42:51;103628.31;;;-0.79;100.00
67840;BME280;54636;51.684;5.142;2023-01-25T07:45:17;103631.09;;;-0.76;100.00
67840;BME280;54636;51.684;5.142;2023-01-25T07:47:42;103633.00;;;-0.76;100.00
67840;BME280;54636;51.684;5.142;2023-01-25T07:50:08;103625.97;;;-0.81;100.00
67840;BME280;54636;51.684;5.142;2023-01-25T07:52:34;103619.41;;;-0.83;100.00
67840;BME280;54636;51.684;5.142;2023-01-25T07:55:00;103624.66;;;-0.75;100.00
67840;BME280;54636;51.684;5.142;2023-01-25T07:57:25;103622.44;;;-0.73;100.00
67840;BME280;54636;51.684;5.142;2023-01-25T07:59:52;103611.75;;;-0.73;100.00
67840;BME280;54636;51.684;5.142;2023-01-25T08:02:17;103618.97;;;-0.73;100.00
67840;BME280;54636;51.684;5.142;2023-01-25T08:04:43;103608.94;;;-0.52;100.00
67840;BME280;54636;51.684;5.142;2023-01-25T08:07:10;103612.97;;;-0.70;100.00
67840;BME280;54636;51.684;5.142;2023-01-25T08:09:35;103610.75;;;-0.68;100.00
67840;BME280;54636;51.684;5.142;2023-01-25T08:12:01;103609.38;;;-0.62;100.00
67840;BME280;54636;51.684;5.142;2023-01-25T08:14:26;103611.41;;;-0.71;100.00
67840;BME280;54636;51.684;5.142;2023-01-25T08:16:52;103611.41;;;-0.71;100.00
67840;BME280;54636;51.684;5.142;2023-01-25T08:19:17;103607.75;;;-0.67;100.00
67840;BME280;54636;51.684;5.142;2023-01-25T08:21:44;103611.59;;;-0.64;100.00
67840;BME280;54636;51.684;5.142;2023-01-25T08:24:10;103599.38;;;-0.53;100.00
67840;BME280;54636;51.684;5.142;2023-01-25T08:26:36;103604.28;;;-0.55;100.00
67840;BME280;54636;51.684;5.142;2023-01-25T08:29:02;103584.59;;;-0.62;100.00
67840;BME280;54636;51.684;5.142;2023-01-25T08:31:33;103598.38;;;-0.60;100.00
67840;BME280;54636;51.684;5.142;2023-01-25T08:33:59;103594.94;;;-0.61;100.00
67840;BME280;54636;51.684;5.142;2023-01-25T08:36:25;103600.47;;;-0.54;100.00
67840;BME280;54636;51.684;5.142;2023-01-25T08:39:02;103601.94;;;-0.56;100.00
67840;BME280;54636;51.684;5.142;2023-01-25T08:41:29;103603.25;;;-0.50;100.00
67840;BME280;54636;51.684;5.142;2023-01-25T08:43:55;103601.25;;;-0.53;100.00
67840;BME280;54636;51.684;5.142;2023-01-25T08:46:22;103592.94;;;-0.64;100.00
67840;BME280;54636;51.684;5.142;2023-01-25T08:48:55;103600.47;;;-0.54;100.00
67840;BME280;54636;51.684;5.142;2023-01-25T08:51:22;103603.81;;;-0.57;100.00
67840;BME280;54636;51.684;5.142;2023-01-25T08:53:48;103605.59;;;-0.49;100.00
67840;BME280;54636;51.684;5.142;2023-01-25T08:56:15;103593.94;;;-0.56;100.00
67840;BME280;54636;51.684;5.142;2023-01-25T08:58:43;103588.91;;;-0.58;100.00
67840;BME280;54636;51.684;5.142;2023-01-25T09:01:11;103601.59;;;-0.55;100.00
67840;BME280;54636;51.684;5.142;2023-01-25T09:03:46;103589.81;;;-0.54;100.00
67840;BME280;54636;51.684;5.142;2023-01-25T09:06:12;103585.47;;;-0.58;100.00
67840;BME280;54636;51.684;5.142;2023-01-25T09:08:38;103581.13;;;-0.51;100.00
67840;BME280;54636;51.684;5.142;2023-01-25T09:11:15;103578.00;;;-0.53;100.00
67840;BME280;54636;51.684;5.142;2023-01-25T09:13:41;103582.25;;;-0.52;100.00
67840;BME280;54636;51.684;5.142;2023-01-25T09:16:11;103593.03;;;-0.48;100.00
67840;BME280;54636;51.684;5.142;2023-01-25T09:18:38;103584.56;;;-0.50;100.00
67840;BME280;54636;51.684;5.142;2023-01-25T09:21:13;103580.78;;;-0.49;100.00
67840;BME280;54636;51.684;5.142;2023-01-25T09:23:42;103585.69;;;-0.51;100.00
67840;BME280;54636;51.684;5.142;2023-01-25T09:26:13;103583.34;;;-0.53;100.00
67840;BME280;54636;51.684;5.142;2023-01-25T09:28:40;103584.81;;;-0.55;100.00
67840;BME280;54636;51.684;5.142;2023-01-25T09:31:06;103577.13;;;-0.57;100.00
67840;BME280;54636;51.684;5.142;2023-01-25T09:33:36;103568.88;;;-0.52;100.00
67840;BME280;54636;51.684;5.142;2023-01-25T09:36:02;103588.56;;;-0.44;100.00
67840;BME280;54636;51.684;5.142;2023-01-25T09:38:28;103591.91;;;-0.47;100.00
67840;BME280;54636;51.684;5.142;2023-01-25T09:47:20;103581.44;;;-0.40;100.00
67840;BME280;54636;51.684;5.142;2023-01-25T09:55:35;103574.63;;;-0.25;100.00
67840;BME280;54636;51.684;5.142;2023-01-25T09:58:01;103566.41;;;-0.32;100.00
67840;BME280;54636;51.684;5.142;2023-01-25T10:00:33;103566.41;;;-0.32;100.00
67840;BME280;54636;51.684;5.142;2023-01-25T10:05:43;103563.19;;;-0.38;100.00
67840;BME280;54636;51.684;5.142;2023-01-25T10:08:31;103571.53;;;-0.27;100.00
67840;BME280;54636;51.684;5.142;2023-01-25T10:11:04;103565.28;;;-0.31;100.00
67840;BME280;54636;51.684;5.142;2023-01-25T10:13:32;103557.06;;;-0.26;100.00
67840;BME280;54636;51.684;5.142;2023-01-25T10:16:10;103558.59;;;-0.25;100.00
67840;BME280;54636;51.684;5.142;2023-01-25T10:21:21;103550.81;;;-0.30;100.00
67840;BME280;54636;51.684;5.142;2023-01-25T10:26:39;103537.03;;;-0.32;100.00
67840;BME280;54636;51.684;5.142;2023-01-25T10:29:34;103542.59;;;-0.25;100.00
67840;BME280;54636;51.684;5.142;2023-01-25T10:32:26;103538.13;;;-0.21;100.00
67840;BME280;54636;51.684;5.142;2023-01-25T10:34:54;103529.22;;;-0.25;100.00
67840;BME280;54636;51.684;5.142;2023-01-25T10:37:23;103524.09;;;-0.18;100.00
67840;BME280;54636;51.684;5.142;2023-01-25T10:40:02;103533.22;;;-0.19;100.00
67840;BME280;54636;51.684;5.142;2023-01-25T10:42:42;103508.44;;;-0.32;100.00
67840;BME280;54636;51.684;5.142;2023-01-25T10:45:13;103512.97;;;-0.20;100.00
67840;BME280;54636;51.684;5.142;2023-01-25T10:47:46;103491.50;;;-0.24;100.00
67840;BME280;54636;51.684;5.142;2023-01-25T10:53:02;103482.91;;;-0.17;100.00
67840;BME280;54636;51.684;5.142;2023-01-25T10:55:28;103481.63;;;-0.08;100.00
67840;BME280;54636;51.684;5.142;2023-01-25T10:57:56;103474.66;;;0.04;100.00
67840;BME280;54636;51.684;5.142;2023-01-25T11:00:26;103479.84;;;0.12;100.00
67840;BME280;54636;51.684;5.142;2023-01-25T11:02:53;103476.47;;;0.15;100.00
67840;BME280;54636;51.684;5.142;2023-01-25T11:07:51;103450.34;;;0.09;100.00
67840;BME280;54636;51.684;5.142;2023-01-25T11:15:49;103436.47;;;0.03;100.00
67840;BME280;54636;51.684;5.142;2023-01-25T11:20:41;103436.31;;;-0.04;100.00
67840;BME280;54636;51.684;5.142;2023-01-25T11:23:24;103427.25;;;0.00;100.00
67840;BME280;54636;51.684;5.142;2023-01-25T11:25:50;103429.50;;;-0.02;100.00
67840;BME280;54636;51.684;5.142;2023-01-25T11:28:21;103412.25;;;-0.04;100.00
67840;BME280;54636;51.684;5.142;2023-01-25T11:30:48;103411.56;;;-0.01;100.00
67840;BME280;54636;51.684;5.142;2023-01-25T11:33:16;103400.03;;;-0.05;100.00
67840;BME280;54636;51.684;5.142;2023-01-25T11:38:23;103392.94;;;0.03;100.00
67840;BME280;54636;51.684;5.142;2023-01-25T11:51:17;103370.44;;;0.04;100.00
67840;BME280;54636;51.684;5.142;2023-01-25T11:59:12;103343.38;;;0.05;100.00
67840;BME280;54636;51.684;5.142;2023-01-25T12:07:46;103328.91;;;0.06;100.00
67840;BME280;54636;51.684;5.142;2023-01-25T12:29:36;103264.19;;;-0.03;100.00
67840;BME280;54636;51.684;5.142;2023-01-25T12:32:09;103268.16;;;-0.13;100.00
67840;BME280;54636;51.684;5.142;2023-01-25T12:34:37;103248.88;;;-0.22;100.00
67840;BME280;54636;51.684;5.142;2023-01-25T12:37:20;103249.47;;;-0.13;100.00
67840;BME280;54636;51.684;5.142;2023-01-25T12:40:00;103240.34;;;-0.12;100.00
67840;BME280;54636;51.684;5.142;2023-01-25T12:42:43;103242.75;;;-0.07;100.00
67840;BME280;54636;51.684;5.142;2023-01-25T12:45:37;103241.28;;;-0.04;100.00
67840;BME280;54636;51.684;5.142;2023-01-25T12:53:20;103225.50;;;-0.09;100.00
67840;BME280;54636;51.684;5.142;2023-01-25T12:55:48;103224.47;;;-0.05;100.00
67840;BME280;54636;51.684;5.142;2023-01-25T12:58:45;103224.03;;;-0.07;100.00
67840;BME280;54636;51.684;5.142;2023-01-25T13:04:24;103209.91;;;-0.07;100.00
67840;BME280;54636;51.684;5.142;2023-01-25T13:07:15;103209.56;;;-0.06;100.00
67840;BME280;54636;51.684;5.142;2023-01-25T13:12:26;103186.72;;;-0.03;100.00
67840;BME280;54636;51.684;5.142;2023-01-25T13:14:51;103192.19;;;0.04;100.00
67840;BME280;54636;51.684;5.142;2023-01-25T13:17:30;103180.94;;;-0.05;100.00
67840;BME280;54636;51.684;5.142;2023-01-25T13:19:57;103172.59;;;-0.04;100.00
67840;BME280;54636;51.684;5.142;2023-01-25T13:27:42;103154.94;;;-0.08;100.00
67840;BME280;54636;51.684;5.142;2023-01-25T13:30:32;103142.50;;;-0.01;100.00
67840;BME280;54636;51.684;5.142;2023-01-25T13:33:05;103147.19;;;0.06;100.00
67840;BME280;54636;51.684;5.142;2023-01-25T13:35:41;103151.06;;;0.09;100.00
67840;BME280;54636;51.684;5.142;2023-01-25T13:40:34;103155.28;;;0.10;100.00
67840;BME280;54636;51.684;5.142;2023-01-25T13:43:17;103156.25;;;0.02;100.00
67840;BME280;54636;51.684;5.142;2023-01-25T13:45:44;103156.97;;;-0.02;100.00
67840;BME280;54636;51.684;5.142;2023-01-25T13:50:42;103158.09;;;-0.03;100.00
67840;BME280;54636;51.684;5.142;2023-01-25T13:53:23;103152.78;;;-0.03;100.00
67840;BME280;54636;51.684;5.142;2023-01-25T13:55:53;103151.22;;;-0.04;100.00
67840;BME280;54636;51.684;5.142;2023-01-25T14:00:57;103150.53;;;-0.01;100.00
67840;BME280;54636;51.684;5.142;2023-01-25T14:06:06;103134.81;;;-0.21;100.00
67840;BME280;54636;51.684;5.142;2023-01-25T14:08:39;103132.69;;;-0.31;100.00
67840;BME280;54636;51.684;5.142;2023-01-25T14:11:04;103139.13;;;-0.32;100.00
67840;BME280;54636;51.684;5.142;2023-01-25T14:13:30;103148.34;;;-0.30;100.00
67840;BME280;54636;51.684;5.142;2023-01-25T14:15:58;103144.13;;;-0.31;100.00
67840;BME280;54636;51.684;5.142;2023-01-25T14:18:31;103141.47;;;-0.31;100.00
67840;BME280;54636;51.684;5.142;2023-01-25T14:21:18;103128.28;;;-0.40;100.00
67840;BME280;54636;51.684;5.142;2023-01-25T14:23:44;103136.22;;;-0.43;100.00
67840;BME280;54636;51.684;5.142;2023-01-25T14:28:44;103127.94;;;-0.38;100.00
67840;BME280;54636;51.684;5.142;2023-01-25T14:31:22;103128.13;;;-0.47;100.00
67840;BME280;54636;51.684;5.142;2023-01-25T14:33:48;103127.88;;;-0.42;100.00
67840;BME280;54636;51.684;5.142;2023-01-25T14:36:19;103128.47;;;-0.48;100.00